sensor_id;sensor_type;location;lat;lon;timestamp;temperature;humidity
36594;DHT22;22603;47.900;8.146;2022-10-30T00:01:00;8.00;99.90
36594;DHT22;22603;47.900;8.146;2022-10-30T00:03:47;8.00;99.90
36594;DHT22;22603;47.900;8.146;2022-10-30T00:06:34;8.00;99.90
36594;DHT22;22603;47.900;8.146;2022-10-30T00:09:20;8.00;99.90
36594;DHT22;22603;47.900;8.146;2022-10-30T00:12:08;8.00;99.90
36594;DHT22;22603;47.900;8.146;2022-10-30T00:14:56;8.00;99.90
36594;DHT22;22603;47.900;8.146;2022-10-30T00:17:42;8.00;99.90
36594;DHT22;22603;47.900;8.146;2022-10-30T00:20:29;8.00;99.90
36594;DHT22;22603;47.900;8.146;2022-10-30T00:23:17;8.00;99.90
36594;DHT22;22603;47.900;8.146;2022-10-30T00:26:06;8.00;99.90
36594;DHT22;22603;47.900;8.146;2022-10-30T00:28:55;8.00;99.90
36594;DHT22;22603;47.900;8.146;2022-10-30T00:31:42;8.00;99.90
36594;DHT22;22603;47.900;8.146;2022-10-30T00:34:29;8.00;99.90
36594;DHT22;22603;47.900;8.146;2022-10-30T00:37:16;7.90;99.90
36594;DHT22;22603;47.900;8.146;2022-10-30T00:40:04;7.90;99.90
36594;DHT22;22603;47.900;8.146;2022-10-30T00:42:51;7.90;99.90
36594;DHT22;22603;47.900;8.146;2022-10-30T00:45:40;7.90;99.90
36594;DHT22;22603;47.900;8.146;2022-10-30T00:48:27;7.90;99.90
36594;DHT22;22603;47.900;8.146;2022-10-30T00:51:14;7.90;99.90
36594;DHT22;22603;47.900;8.146;2022-10-30T00:54:02;7.80;99.90
36594;DHT22;22603;47.900;8.146;2022-10-30T00:56:51;7.80;99.90
36594;DHT22;22603;47.900;8.146;2022-10-30T00:59:38;7.80;99.90
36594;DHT22;22603;47.900;8.146;2022-10-30T01:02:27;7.80;99.90
36594;DHT22;22603;47.900;8.146;2022-10-30T01:05:15;7.80;99.90
36594;DHT22;22603;47.900;8.146;2022-10-30T01:08:04;7.80;99.90
36594;DHT22;22603;47.900;8.146;2022-10-30T01:10:51;7.70;99.90
36594;DHT22;22603;47.900;8.146;2022-10-30T01:13:39;7.70;99.90
36594;DHT22;22603;47.900;8.146;2022-10-30T01:16:43;7.70;99.90
36594;DHT22;22603;47.900;8.146;2022-10-30T01:19:40;7.70;99.90
36594;DHT22;22603;47.900;8.146;2022-10-30T01:22:38;7.60;99.90
36594;DHT22;22603;47.900;8.146;2022-10-30T01:25:41;7.60;99.90
36594;DHT22;22603;47.900;8.146;2022-10-30T01:28:39;7.60;99.90
36594;DHT22;22603;47.900;8.146;2022-10-30T01:31:39;7.60;99.90
36594;DHT22;22603;47.900;8.146;2022-10-30T01:34:32;7.60;99.90
36594;DHT22;22603;47.900;8.146;2022-10-30T01:37:31;7.60;99.90
36594;DHT22;22603;47.900;8.146;2022-10-30T01:40:18;7.60;99.90
36594;DHT22;22603;47.900;8.146;2022-10-30T01:43:05;7.50;99.90
36594;DHT22;22603;47.900;8.146;2022-10-30T01:46:08;7.50;99.90
36594;DHT22;22603;47.900;8.146;2022-10-30T01:49:14;7.40;99.90
36594;DHT22;22603;47.900;8.146;2022-10-30T01:52:12;7.40;99.90
36594;DHT22;22603;47.900;8.146;2022-10-30T01:55:06;7.40;99.90
36594;DHT22;22603;47.900;8.146;2022-10-30T01:58:01;7.40;99.90
36594;DHT22;22603;47.900;8.146;2022-10-30T02:00:52;7.40;99.90
36594;DHT22;22603;47.900;8.146;2022-10-30T02:03:41;7.30;99.90
36594;DHT22;22603;47.900;8.146;2022-10-30T02:06:27;7.30;99.90
36594;DHT22;22603;47.900;8.146;2022-10-30T02:09:15;7.30;99.90
36594;DHT22;22603;47.900;8.146;2022-10-30T02:12:04;7.30;99.90
36594;DHT22;22603;47.900;8.146;2022-10-30T02:14:55;7.20;99.90
36594;DHT22;22603;47.900;8.146;2022-10-30T02:17:43;7.20;99.90
36594;DHT22;22603;47.900;8.146;2022-10-30T02:20:31;7.20;99.90
36594;DHT22;22603;47.900;8.146;2022-10-30T02:23:18;7.20;99.90
36594;DHT22;22603;47.900;8.146;2022-10-30T02:26:06;7.20;99.90
36594;DHT22;22603;47.900;8.146;2022-10-30T02:28:53;7.20;99.90
36594;DHT22;22603;47.900;8.146;2022-10-30T02:31:40;7.20;99.90
36594;DHT22;22603;47.900;8.146;2022-10-30T02:34:27;7.20;99.90
36594;DHT22;22603;47.900;8.146;2022-10-30T02:37:15;7.20;99.90
36594;DHT22;22603;47.900;8.146;2022-10-30T02:40:03;7.20;99.90
36594;DHT22;22603;47.900;8.146;2022-10-30T02:42:53;7.10;99.90
36594;DHT22;22603;47.900;8.146;2022-10-30T02:45:40;7.20;99.90
36594;DHT22;22603;47.900;8.146;2022-10-30T02:48:27;7.10;99.90
36594;DHT22;22603;47.900;8.146;2022-10-30T02:51:15;7.10;99.90
36594;DHT22;22603;47.900;8.146;2022-10-30T02:54:03;7.10;99.90
36594;DHT22;22603;47.900;8.146;2022-10-30T02:56:50;7.10;99.90
36594;DHT22;22603;47.900;8.146;2022-10-30T02:59:36;7.10;99.90
36594;DHT22;22603;47.900;8.146;2022-10-30T03:02:23;7.10;99.90
36594;DHT22;22603;47.900;8.146;2022-10-30T03:05:10;7.10;99.90
36594;DHT22;22603;47.900;8.146;2022-10-30T03:07:57;7.10;99.90
36594;DHT22;22603;47.900;8.146;2022-10-30T03:10:46;7.10;99.90
36594;DHT22;22603;47.900;8.146;2022-10-30T03:13:34;7.00;99.90
36594;DHT22;22603;47.900;8.146;2022-10-30T03:16:23;7.10;99.90
36594;DHT22;22603;47.900;8.146;2022-10-30T03:19:10;7.00;99.90
36594;DHT22;22603;47.900;8.146;2022-10-30T03:21:57;6.90;99.90
36594;DHT22;22603;47.900;8.146;2022-10-30T03:24:43;6.90;99.90
36594;DHT22;22603;47.900;8.146;2022-10-30T03:27:32;7.00;99.90
36594;DHT22;22603;47.900;8.146;2022-10-30T03:30:19;6.90;99.90
36594;DHT22;22603;47.900;8.146;2022-10-30T03:33:05;6.90;99.90
36594;DHT22;22603;47.900;8.146;2022-10-30T03:35:52;6.90;99.90
36594;DHT22;22603;47.900;8.146;2022-10-30T03:38:39;6.90;99.90
36594;DHT22;22603;47.900;8.146;2022-10-30T03:41:26;6.90;99.90
36594;DHT22;22603;47.900;8.146;2022-10-30T03:44:14;6.90;99.90
36594;DHT22;22603;47.900;8.146;2022-10-30T03:47:00;6.90;99.90
36594;DHT22;22603;47.900;8.146;2022-10-30T03:49:48;6.80;99.90
36594;DHT22;22603;47.900;8.146;2022-10-30T03:52:34;6.80;99.90
36594;DHT22;22603;47.900;8.146;2022-10-30T03:55:22;6.80;99.90
36594;DHT22;22603;47.900;8.146;2022-10-30T03:58:09;6.80;99.90
36594;DHT22;22603;47.900;8.146;2022-10-30T04:01:01;6.80;99.90
36594;DHT22;22603;47.900;8.146;2022-10-30T04:03:48;6.80;99.90
36594;DHT22;22603;47.900;8.146;2022-10-30T04:06:36;6.80;99.90
36594;DHT22;22603;47.900;8.146;2022-10-30T04:09:22;6.70;99.90
36594;DHT22;22603;47.900;8.146;2022-10-30T04:12:09;6.70;99.90
36594;DHT22;22603;47.900;8.146;2022-10-30T04:14:56;6.70;99.90
36594;DHT22;22603;47.900;8.146;2022-10-30T04:17:49;6.70;99.90
36594;DHT22;22603;47.900;8.146;2022-10-30T04:20:36;6.70;99.90
36594;DHT22;22603;47.900;8.146;2022-10-30T04:23:23;6.70;99.90
36594;DHT22;22603;47.900;8.146;2022-10-30T04:26:10;6.60;99.90
36594;DHT22;22603;47.900;8.146;2022-10-30T04:28:57;6.60;99.90
36594;DHT22;22603;47.900;8.146;2022-10-30T04:31:44;6.60;99.90
36594;DHT22;22603;47.900;8.146;2022-10-30T04:34:32;6.60;99.90
36594;DHT22;22603;47.900;8.146;2022-10-30T04:37:19;6.60;99.90
36594;DHT22;22603;47.900;8.146;2022-10-30T04:40:07;6.60;99.90
36594;DHT22;22603;47.900;8.146;2022-10-30T04:42:54;6.50;99.90
36594;DHT22;22603;47.900;8.146;2022-10-30T04:45:42;6.50;99.90
36594;DHT22;22603;47.900;8.146;2022-10-30T04:48:29;6.50;99.90
36594;DHT22;22603;47.900;8.146;2022-10-30T04:51:21;6.50;99.90
36594;DHT22;22603;47.900;8.146;2022-10-30T04:54:08;6.50;99.90
36594;DHT22;22603;47.900;8.146;2022-10-30T04:56:55;6.50;99.90
36594;DHT22;22603;47.900;8.146;2022-10-30T04:59:42;6.50;99.90
36594;DHT22;22603;47.900;8.146;2022-10-30T05:02:28;6.40;99.90
36594;DHT22;22603;47.900;8.146;2022-10-30T05:05:17;6.40;99.90
36594;DHT22;22603;47.900;8.146;2022-10-30T05:08:06;6.40;99.90
36594;DHT22;22603;47.900;8.146;2022-10-30T05:10:54;6.40;99.90
36594;DHT22;22603;47.900;8.146;2022-10-30T05:13:41;6.40;99.90
36594;DHT22;22603;47.900;8.146;2022-10-30T05:16:28;6.40;99.90
36594;DHT22;22603;47.900;8.146;2022-10-30T05:19:15;6.30;99.90
36594;DHT22;22603;47.900;8.146;2022-10-30T05:22:02;6.30;99.90
36594;DHT22;22603;47.900;8.146;2022-10-30T05:24:51;6.30;99.90
36594;DHT22;22603;47.900;8.146;2022-10-30T05:27:37;6.30;99.90
36594;DHT22;22603;47.900;8.146;2022-10-30T05:30:24;6.30;99.90
36594;DHT22;22603;47.900;8.146;2022-10-30T05:33:11;6.30;99.90
36594;DHT22;22603;47.900;8.146;2022-10-30T05:36:00;6.30;99.90
36594;DHT22;22603;47.900;8.146;2022-10-30T05:38:46;6.30;99.90
36594;DHT22;22603;47.900;8.146;2022-10-30T05:41:35;6.30;99.90
36594;DHT22;22603;47.900;8.146;2022-10-30T05:44:21;6.30;99.90
36594;DHT22;22603;47.900;8.146;2022-10-30T05:47:28;6.20;99.90
36594;DHT22;22603;47.900;8.146;2022-10-30T05:50:15;6.30;99.90
36594;DHT22;22603;47.900;8.146;2022-10-30T05:53:03;6.20;99.90
36594;DHT22;22603;47.900;8.146;2022-10-30T05:55:55;6.30;99.90
36594;DHT22;22603;47.900;8.146;2022-10-30T05:58:43;6.40;99.90
36594;DHT22;22603;47.900;8.146;2022-10-30T06:01:30;6.40;99.90
36594;DHT22;22603;47.900;8.146;2022-10-30T06:04:17;6.30;99.90
36594;DHT22;22603;47.900;8.146;2022-10-30T06:07:04;6.30;99.90
36594;DHT22;22603;47.900;8.146;2022-10-30T06:09:55;6.30;99.90
36594;DHT22;22603;47.900;8.146;2022-10-30T06:12:41;6.20;99.90
36594;DHT22;22603;47.900;8.146;2022-10-30T06:15:30;6.20;99.90
36594;DHT22;22603;47.900;8.146;2022-10-30T06:18:17;6.20;99.90
36594;DHT22;22603;47.900;8.146;2022-10-30T06:21:04;6.20;99.90
36594;DHT22;22603;47.900;8.146;2022-10-30T06:23:51;6.20;99.90
36594;DHT22;22603;47.900;8.146;2022-10-30T06:26:38;6.20;99.90
36594;DHT22;22603;47.900;8.146;2022-10-30T06:29:25;6.30;99.90
36594;DHT22;22603;47.900;8.146;2022-10-30T06:32:14;6.30;99.90
36594;DHT22;22603;47.900;8.146;2022-10-30T06:35:01;6.30;99.90
36594;DHT22;22603;47.900;8.146;2022-10-30T06:37:49;6.30;99.90
36594;DHT22;22603;47.900;8.146;2022-10-30T06:40:38;6.40;99.90
36594;DHT22;22603;47.900;8.146;2022-10-30T06:43:25;6.40;99.90
36594;DHT22;22603;47.900;8.146;2022-10-30T06:46:12;6.50;99.90
36594;DHT22;22603;47.900;8.146;2022-10-30T06:49:00;6.60;99.90
36594;DHT22;22603;47.900;8.146;2022-10-30T06:51:50;6.70;99.90
36594;DHT22;22603;47.900;8.146;2022-10-30T06:54:37;6.70;99.90
36594;DHT22;22603;47.900;8.146;2022-10-30T06:57:24;6.80;99.90
36594;DHT22;22603;47.900;8.146;2022-10-30T07:00:12;6.90;99.90
36594;DHT22;22603;47.900;8.146;2022-10-30T07:03:00;6.90;99.90
36594;DHT22;22603;47.900;8.146;2022-10-30T07:05:50;7.00;99.90
36594;DHT22;22603;47.900;8.146;2022-10-30T07:08:37;7.10;99.90
36594;DHT22;22603;47.900;8.146;2022-10-30T07:11:24;7.20;99.90
36594;DHT22;22603;47.900;8.146;2022-10-30T07:14:11;7.30;99.90
36594;DHT22;22603;47.900;8.146;2022-10-30T07:16:58;7.40;99.90
36594;DHT22;22603;47.900;8.146;2022-10-30T07:19:45;7.60;99.90
36594;DHT22;22603;47.900;8.146;2022-10-30T07:22:37;7.70;99.90
36594;DHT22;22603;47.900;8.146;2022-10-30T07:25:24;7.80;99.90
36594;DHT22;22603;47.900;8.146;2022-10-30T07:28:11;8.00;99.90
36594;DHT22;22603;47.900;8.146;2022-10-30T07:30:59;8.20;99.90
36594;DHT22;22603;47.900;8.146;2022-10-30T07:33:46;8.40;99.90
36594;DHT22;22603;47.900;8.146;2022-10-30T07:36:33;8.70;99.90
36594;DHT22;22603;47.900;8.146;2022-10-30T07:39:22;9.00;99.90
36594;DHT22;22603;47.900;8.146;2022-10-30T07:42:08;9.50;99.90
36594;DHT22;22603;47.900;8.146;2022-10-30T07:44:55;10.00;99.90
36594;DHT22;22603;47.900;8.146;2022-10-30T07:47:43;10.60;99.90
36594;DHT22;22603;47.900;8.146;2022-10-30T07:50:30;11.10;99.90
36594;DHT22;22603;47.900;8.146;2022-10-30T07:53:17;11.60;99.90
36594;DHT22;22603;47.900;8.146;2022-10-30T07:56:06;12.00;99.90
36594;DHT22;22603;47.900;8.146;2022-10-30T07:58:53;12.70;99.90
36594;DHT22;22603;47.900;8.146;2022-10-30T08:01:39;13.40;99.90
36594;DHT22;22603;47.900;8.146;2022-10-30T08:04:26;13.60;99.90
36594;DHT22;22603;47.900;8.146;2022-10-30T08:07:13;14.40;99.90
36594;DHT22;22603;47.900;8.146;2022-10-30T08:10:00;15.40;99.90
36594;DHT22;22603;47.900;8.146;2022-10-30T08:12:48;16.50;99.90
36594;DHT22;22603;47.900;8.146;2022-10-30T08:15:35;16.90;99.90
36594;DHT22;22603;47.900;8.146;2022-10-30T08:18:24;17.00;99.90
36594;DHT22;22603;47.900;8.146;2022-10-30T08:21:11;16.10;99.90
36594;DHT22;22603;47.900;8.146;2022-10-30T08:24:00;16.00;99.90
36594;DHT22;22603;47.900;8.146;2022-10-30T08:26:50;16.10;99.90
36594;DHT22;22603;47.900;8.146;2022-10-30T08:29:38;16.30;99.90
36594;DHT22;22603;47.900;8.146;2022-10-30T08:32:25;17.70;99.90
36594;DHT22;22603;47.900;8.146;2022-10-30T08:35:12;18.80;99.90
36594;DHT22;22603;47.900;8.146;2022-10-30T08:38:05;19.50;99.90
36594;DHT22;22603;47.900;8.146;2022-10-30T08:40:52;20.10;99.90
36594;DHT22;22603;47.900;8.146;2022-10-30T08:43:39;18.60;99.90
36594;DHT22;22603;47.900;8.146;2022-10-30T08:46:28;17.50;99.90
36594;DHT22;22603;47.900;8.146;2022-10-30T08:49:15;17.20;99.90
36594;DHT22;22603;47.900;8.146;2022-10-30T08:52:02;17.30;99.90
36594;DHT22;22603;47.900;8.146;2022-10-30T08:54:52;17.30;99.90
36594;DHT22;22603;47.900;8.146;2022-10-30T08:57:39;17.50;99.90
36594;DHT22;22603;47.900;8.146;2022-10-30T09:00:27;17.90;99.90
36594;DHT22;22603;47.900;8.146;2022-10-30T09:03:15;18.10;99.90
36594;DHT22;22603;47.900;8.146;2022-10-30T09:06:03;18.00;99.90
36594;DHT22;22603;47.900;8.146;2022-10-30T09:08:50;18.00;99.90
36594;DHT22;22603;47.900;8.146;2022-10-30T09:11:38;18.90;99.90
36594;DHT22;22603;47.900;8.146;2022-10-30T09:14:24;18.80;99.90
36594;DHT22;22603;47.900;8.146;2022-10-30T09:17:11;18.80;99.90
36594;DHT22;22603;47.900;8.146;2022-10-30T09:20:00;18.80;99.90
36594;DHT22;22603;47.900;8.146;2022-10-30T09:22:47;19.40;99.90
36594;DHT22;22603;47.900;8.146;2022-10-30T09:25:34;20.30;99.90
36594;DHT22;22603;47.900;8.146;2022-10-30T09:28:21;20.40;99.90
36594;DHT22;22603;47.900;8.146;2022-10-30T09:31:08;20.50;99.90
36594;DHT22;22603;47.900;8.146;2022-10-30T09:33:55;20.60;99.90
36594;DHT22;22603;47.900;8.146;2022-10-30T09:36:43;20.30;99.90
36594;DHT22;22603;47.900;8.146;2022-10-30T09:39:31;20.40;99.90
36594;DHT22;22603;47.900;8.146;2022-10-30T09:42:30;20.30;99.90
36594;DHT22;22603;47.900;8.146;2022-10-30T09:45:47;20.70;99.90
36594;DHT22;22603;47.900;8.146;2022-10-30T09:52:11;20.40;99.90
36594;DHT22;22603;47.900;8.146;2022-10-30T09:55:12;20.70;99.90
36594;DHT22;22603;47.900;8.146;2022-10-30T09:58:14;21.00;99.90
36594;DHT22;22603;47.900;8.146;2022-10-30T10:01:10;21.40;99.90
36594;DHT22;22603;47.900;8.146;2022-10-30T10:04:01;21.80;99.90
36594;DHT22;22603;47.900;8.146;2022-10-30T10:06:54;22.40;99.90
36594;DHT22;22603;47.900;8.146;2022-10-30T10:09:43;22.00;99.90
36594;DHT22;22603;47.900;8.146;2022-10-30T10:12:34;21.10;99.90
36594;DHT22;22603;47.900;8.146;2022-10-30T10:15:35;21.00;99.90
36594;DHT22;22603;47.900;8.146;2022-10-30T10:18:26;20.80;99.90
36594;DHT22;22603;47.900;8.146;2022-10-30T10:21:24;20.60;99.90
36594;DHT22;22603;47.900;8.146;2022-10-30T10:24:15;20.80;99.90
36594;DHT22;22603;47.900;8.146;2022-10-30T10:27:09;21.70;99.90
36594;DHT22;22603;47.900;8.146;2022-10-30T10:30:02;22.20;99.90
36594;DHT22;22603;47.900;8.146;2022-10-30T10:36:22;21.60;99.90
36594;DHT22;22603;47.900;8.146;2022-10-30T10:39:21;21.70;99.90
36594;DHT22;22603;47.900;8.146;2022-10-30T10:42:21;22.20;99.90
36594;DHT22;22603;47.900;8.146;2022-10-30T10:45:17;23.30;99.90
36594;DHT22;22603;47.900;8.146;2022-10-30T10:48:36;22.30;99.90
36594;DHT22;22603;47.900;8.146;2022-10-30T10:51:31;22.50;99.90
36594;DHT22;22603;47.900;8.146;2022-10-30T10:54:23;23.30;99.90
36594;DHT22;22603;47.900;8.146;2022-10-30T10:57:17;23.80;99.90
36594;DHT22;22603;47.900;8.146;2022-10-30T11:00:14;23.00;99.90
36594;DHT22;22603;47.900;8.146;2022-10-30T11:03:06;22.60;99.90
36594;DHT22;22603;47.900;8.146;2022-10-30T11:05:58;22.00;99.90
36594;DHT22;22603;47.900;8.146;2022-10-30T11:08:47;22.30;99.90
36594;DHT22;22603;47.900;8.146;2022-10-30T11:11:35;22.70;99.90
36594;DHT22;22603;47.900;8.146;2022-10-30T11:14:27;23.80;99.90
36594;DHT22;22603;47.900;8.146;2022-10-30T11:17:18;23.20;99.90
36594;DHT22;22603;47.900;8.146;2022-10-30T11:20:15;23.20;99.90
36594;DHT22;22603;47.900;8.146;2022-10-30T11:23:37;22.90;99.90
36594;DHT22;22603;47.900;8.146;2022-10-30T11:26:32;22.40;99.90
36594;DHT22;22603;47.900;8.146;2022-10-30T11:29:24;23.00;99.90
36594;DHT22;22603;47.900;8.146;2022-10-30T11:32:23;23.50;99.90
36594;DHT22;22603;47.900;8.146;2022-10-30T11:35:27;22.80;99.90
36594;DHT22;22603;47.900;8.146;2022-10-30T11:38:18;22.60;99.90
36594;DHT22;22603;47.900;8.146;2022-10-30T11:41:06;23.40;99.90
36594;DHT22;22603;47.900;8.146;2022-10-30T11:43:54;23.30;99.90
36594;DHT22;22603;47.900;8.146;2022-10-30T11:46:43;23.80;99.90
36594;DHT22;22603;47.900;8.146;2022-10-30T11:49:40;24.20;99.90
36594;DHT22;22603;47.900;8.146;2022-10-30T11:52:35;23.50;99.90
36594;DHT22;22603;47.900;8.146;2022-10-30T11:55:34;22.30;99.90
36594;DHT22;22603;47.900;8.146;2022-10-30T11:58:25;21.90;99.90
36594;DHT22;22603;47.900;8.146;2022-10-30T12:01:22;22.50;99.90
36594;DHT22;22603;47.900;8.146;2022-10-30T12:04:21;22.90;99.90
36594;DHT22;22603;47.900;8.146;2022-10-30T12:07:18;23.00;99.90
36594;DHT22;22603;47.900;8.146;2022-10-30T12:10:23;23.10;99.90
36594;DHT22;22603;47.900;8.146;2022-10-30T12:13:13;23.10;99.90
36594;DHT22;22603;47.900;8.146;2022-10-30T12:16:06;23.20;99.90
36594;DHT22;22603;47.900;8.146;2022-10-30T12:18:58;23.00;99.90
36594;DHT22;22603;47.900;8.146;2022-10-30T12:21:48;23.20;99.90
36594;DHT22;22603;47.900;8.146;2022-10-30T12:24:38;22.60;99.90
36594;DHT22;22603;47.900;8.146;2022-10-30T12:27:29;22.50;99.90
36594;DHT22;22603;47.900;8.146;2022-10-30T12:30:18;22.60;99.90
36594;DHT22;22603;47.900;8.146;2022-10-30T12:33:10;22.70;99.90
36594;DHT22;22603;47.900;8.146;2022-10-30T12:36:00;22.50;99.90
36594;DHT22;22603;47.900;8.146;2022-10-30T12:38:53;22.80;99.90
36594;DHT22;22603;47.900;8.146;2022-10-30T12:41:44;22.90;99.90
36594;DHT22;22603;47.900;8.146;2022-10-30T12:44:35;23.00;99.90
36594;DHT22;22603;47.900;8.146;2022-10-30T12:47:27;23.00;99.90
36594;DHT22;22603;47.900;8.146;2022-10-30T12:50:19;23.00;99.90
36594;DHT22;22603;47.900;8.146;2022-10-30T12:53:14;22.90;99.90
36594;DHT22;22603;47.900;8.146;2022-10-30T12:56:09;22.80;99.90
36594;DHT22;22603;47.900;8.146;2022-10-30T12:59:09;22.80;99.90
36594;DHT22;22603;47.900;8.146;2022-10-30T13:02:07;22.80;99.90
36594;DHT22;22603;47.900;8.146;2022-10-30T13:05:00;22.70;99.90
36594;DHT22;22603;47.900;8.146;2022-10-30T13:07:54;22.60;99.90
36594;DHT22;22603;47.900;8.146;2022-10-30T13:10:47;22.60;99.90
36594;DHT22;22603;47.900;8.146;2022-10-30T13:13:39;22.40;99.90
36594;DHT22;22603;47.900;8.146;2022-10-30T13:16:28;22.40;99.90
36594;DHT22;22603;47.900;8.146;2022-10-30T13:19:15;22.00;99.90
36594;DHT22;22603;47.900;8.146;2022-10-30T13:22:06;22.00;99.90
36594;DHT22;22603;47.900;8.146;2022-10-30T13:25:03;22.00;99.90
36594;DHT22;22603;47.900;8.146;2022-10-30T13:27:54;22.10;99.90
36594;DHT22;22603;47.900;8.146;2022-10-30T13:30:57;22.00;99.90
36594;DHT22;22603;47.900;8.146;2022-10-30T13:33:53;22.00;99.90
36594;DHT22;22603;47.900;8.146;2022-10-30T13:36:48;22.00;99.90
36594;DHT22;22603;47.900;8.146;2022-10-30T13:39:39;21.90;99.90
36594;DHT22;22603;47.900;8.146;2022-10-30T13:42:54;21.80;99.90
36594;DHT22;22603;47.900;8.146;2022-10-30T13:46:02;21.70;99.90
36594;DHT22;22603;47.900;8.146;2022-10-30T13:49:00;21.50;99.90
36594;DHT22;22603;47.900;8.146;2022-10-30T13:51:53;21.30;99.90
36594;DHT22;22603;47.900;8.146;2022-10-30T13:54:47;21.30;99.90
36594;DHT22;22603;47.900;8.146;2022-10-30T13:57:41;21.10;99.90
36594;DHT22;22603;47.900;8.146;2022-10-30T14:00:51;21.00;99.90
36594;DHT22;22603;47.900;8.146;2022-10-30T14:03:47;20.80;99.90
36594;DHT22;22603;47.900;8.146;2022-10-30T14:06:43;20.60;99.90
36594;DHT22;22603;47.900;8.146;2022-10-30T14:09:37;20.50;99.90
36594;DHT22;22603;47.900;8.146;2022-10-30T14:12:51;20.30;99.90
36594;DHT22;22603;47.900;8.146;2022-10-30T14:15:41;20.30;99.90
36594;DHT22;22603;47.900;8.146;2022-10-30T14:18:42;20.40;99.90
36594;DHT22;22603;47.900;8.146;2022-10-30T14:21:36;20.40;99.90
36594;DHT22;22603;47.900;8.146;2022-10-30T14:24:26;20.20;99.90
36594;DHT22;22603;47.900;8.146;2022-10-30T14:27:17;20.30;99.90
36594;DHT22;22603;47.900;8.146;2022-10-30T14:30:16;20.50;99.90
36594;DHT22;22603;47.900;8.146;2022-10-30T14:33:04;20.70;99.90
36594;DHT22;22603;47.900;8.146;2022-10-30T14:36:14;20.80;99.90
36594;DHT22;22603;47.900;8.146;2022-10-30T14:39:26;20.70;99.90
36594;DHT22;22603;47.900;8.146;2022-10-30T14:42:19;20.60;99.90
36594;DHT22;22603;47.900;8.146;2022-10-30T14:45:11;20.60;99.90
36594;DHT22;22603;47.900;8.146;2022-10-30T14:48:06;20.50;99.90
36594;DHT22;22603;47.900;8.146;2022-10-30T14:51:04;20.30;99.90
36594;DHT22;22603;47.900;8.146;2022-10-30T14:54:00;20.10;99.90
36594;DHT22;22603;47.900;8.146;2022-10-30T14:56:50;19.90;99.90
36594;DHT22;22603;47.900;8.146;2022-10-30T14:59:38;19.60;99.90
36594;DHT22;22603;47.900;8.146;2022-10-30T15:02:34;19.40;99.90
36594;DHT22;22603;47.900;8.146;2022-10-30T15:05:48;19.20;99.90
36594;DHT22;22603;47.900;8.146;2022-10-30T15:09:03;19.00;99.90
36594;DHT22;22603;47.900;8.146;2022-10-30T15:12:24;18.80;99.90
36594;DHT22;22603;47.900;8.146;2022-10-30T15:15:19;18.70;99.90
36594;DHT22;22603;47.900;8.146;2022-10-30T15:18:09;18.60;99.90
36594;DHT22;22603;47.900;8.146;2022-10-30T15:21:03;18.40;99.90
36594;DHT22;22603;47.900;8.146;2022-10-30T15:23:54;18.20;99.90
36594;DHT22;22603;47.900;8.146;2022-10-30T15:26:47;18.00;99.90
36594;DHT22;22603;47.900;8.146;2022-10-30T15:29:35;17.80;99.90
36594;DHT22;22603;47.900;8.146;2022-10-30T15:32:23;17.60;99.90
36594;DHT22;22603;47.900;8.146;2022-10-30T15:35:14;17.50;99.90
36594;DHT22;22603;47.900;8.146;2022-10-30T15:38:04;17.30;99.90
36594;DHT22;22603;47.900;8.146;2022-10-30T15:40:56;17.20;99.90
36594;DHT22;22603;47.900;8.146;2022-10-30T15:43:45;17.00;99.90
36594;DHT22;22603;47.900;8.146;2022-10-30T15:46:32;16.80;99.90
36594;DHT22;22603;47.900;8.146;2022-10-30T15:49:26;16.70;99.90
36594;DHT22;22603;47.900;8.146;2022-10-30T15:52:24;16.60;99.90
36594;DHT22;22603;47.900;8.146;2022-10-30T15:55:28;16.40;99.90
36594;DHT22;22603;47.900;8.146;2022-10-30T15:58:20;16.20;99.90
36594;DHT22;22603;47.900;8.146;2022-10-30T16:01:23;16.10;99.90
36594;DHT22;22603;47.900;8.146;2022-10-30T16:04:14;15.80;99.90
36594;DHT22;22603;47.900;8.146;2022-10-30T16:07:15;15.60;99.90
36594;DHT22;22603;47.900;8.146;2022-10-30T16:10:09;15.50;99.90
36594;DHT22;22603;47.900;8.146;2022-10-30T16:12:57;15.30;99.90
36594;DHT22;22603;47.900;8.146;2022-10-30T16:15:45;15.20;99.90
36594;DHT22;22603;47.900;8.146;2022-10-30T16:18:34;15.00;99.90
36594;DHT22;22603;47.900;8.146;2022-10-30T16:21:22;14.80;99.90
36594;DHT22;22603;47.900;8.146;2022-10-30T16:24:09;14.60;99.90
36594;DHT22;22603;47.900;8.146;2022-10-30T16:27:05;14.30;99.90
36594;DHT22;22603;47.900;8.146;2022-10-30T16:29:54;14.20;99.90
36594;DHT22;22603;47.900;8.146;2022-10-30T16:32:50;13.90;99.90
36594;DHT22;22603;47.900;8.146;2022-10-30T16:35:40;13.80;99.90
36594;DHT22;22603;47.900;8.146;2022-10-30T16:38:30;13.80;99.90
36594;DHT22;22603;47.900;8.146;2022-10-30T16:41:18;13.70;99.90
36594;DHT22;22603;47.900;8.146;2022-10-30T16:44:16;13.60;99.90
36594;DHT22;22603;47.900;8.146;2022-10-30T16:47:06;13.50;99.90
36594;DHT22;22603;47.900;8.146;2022-10-30T16:49:57;13.30;99.90
36594;DHT22;22603;47.900;8.146;2022-10-30T16:52:46;13.30;99.90
36594;DHT22;22603;47.900;8.146;2022-10-30T16:55:35;13.20;99.90
36594;DHT22;22603;47.900;8.146;2022-10-30T16:58:24;13.00;99.90
36594;DHT22;22603;47.900;8.146;2022-10-30T17:01:12;12.90;99.90
36594;DHT22;22603;47.900;8.146;2022-10-30T17:04:00;12.90;99.90
36594;DHT22;22603;47.900;8.146;2022-10-30T17:06:47;12.70;99.90
36594;DHT22;22603;47.900;8.146;2022-10-30T17:09:39;12.60;99.90
36594;DHT22;22603;47.900;8.146;2022-10-30T17:12:28;12.50;99.90
36594;DHT22;22603;47.900;8.146;2022-10-30T17:15:19;12.40;99.90
36594;DHT22;22603;47.900;8.146;2022-10-30T17:18:09;12.40;99.90
36594;DHT22;22603;47.900;8.146;2022-10-30T17:21:00;12.30;99.90
36594;DHT22;22603;47.900;8.146;2022-10-30T17:23:50;12.30;99.90
36594;DHT22;22603;47.900;8.146;2022-10-30T17:26:39;12.20;99.90
36594;DHT22;22603;47.900;8.146;2022-10-30T17:29:44;12.10;99.90
36594;DHT22;22603;47.900;8.146;2022-10-30T17:32:42;11.90;99.90
36594;DHT22;22603;47.900;8.146;2022-10-30T17:35:29;11.90;99.90
36594;DHT22;22603;47.900;8.146;2022-10-30T17:38:16;11.80;99.90
36594;DHT22;22603;47.900;8.146;2022-10-30T17:41:04;11.60;99.90
36594;DHT22;22603;47.900;8.146;2022-10-30T17:43:54;11.70;99.90
36594;DHT22;22603;47.900;8.146;2022-10-30T17:46:41;11.60;99.90
36594;DHT22;22603;47.900;8.146;2022-10-30T17:49:30;11.50;99.90
36594;DHT22;22603;47.900;8.146;2022-10-30T17:52:18;11.50;99.90
36594;DHT22;22603;47.900;8.146;2022-10-30T17:55:20;11.30;99.90
36594;DHT22;22603;47.900;8.146;2022-10-30T17:58:08;11.30;99.90
36594;DHT22;22603;47.900;8.146;2022-10-30T18:00:57;11.30;99.90
36594;DHT22;22603;47.900;8.146;2022-10-30T18:03:44;11.20;99.90
36594;DHT22;22603;47.900;8.146;2022-10-30T18:06:31;11.10;99.90
36594;DHT22;22603;47.900;8.146;2022-10-30T18:09:18;11.00;99.90
36594;DHT22;22603;47.900;8.146;2022-10-30T18:12:06;10.90;99.90
36594;DHT22;22603;47.900;8.146;2022-10-30T18:14:53;11.00;99.90